Island Breeze — WDA3596 — position and weather

sailwx.info

Track history (hours):
 
Tides and Currents Weather Stations Pressure Air Temp Water Temp Dewpoint Dewpoint Depression Visibility Wind Speed Wind Dir Waves Ship Positions

Island Breeze

Owner: Island Tug & Barge Co., Seattle, WA. More information available from US FCC via Universal Licensing System and Coast Guard Vessel Documentation Center.

Last reported at 2014-Dec-19 07:33 UTC. Time now 2014-Dec-21 11:23 UTC.
Position N 47°34' W 122°21'.

Length 18 m.

Type: Tug. MMSI: 366800090.

Date/timePositionNaut miles runAvg speedWind from/ knotsBaromVisibWave heightAir tempDewpointWater temp
2014-Dec-19 07:33N 47°34' W 122°21'0 0.0
2014-Dec-19 06:33N 47°34' W 122°21'1 0.7
2014-Dec-19 05:33N 47°34' W 122°21'0 0.0
2014-Dec-19 04:33N 47°34' W 122°21'0 0.0
2014-Dec-19 03:33N 47°34' W 122°21'1 0.9
2014-Dec-19 02:33N 47°35' W 122°22'3 2.6
2014-Dec-19 01:32N 47°33' W 122°20'2 2.1
2014-Dec-19 00:33N 47°35' W 122°22'4 4.3
2014-Dec-18 23:33N 47°33' W 122°27'7 6.6
2014-Dec-18 22:33N 47°27' W 122°31'6 6.1
2014-Dec-18 21:33N 47°21' W 122°33'5 5.0
2014-Dec-18 20:33N 47°16' W 122°33'5 4.9
2014-Dec-18 19:33N 47°12' W 122°36'4 3.9
2014-Dec-18 18:33N 47°08' W 122°39'0 0.0
2014-Dec-18 17:29N 47°08' W 122°39'0 0.0
2014-Dec-18 16:29N 47°08' W 122°39'0 0.0
2014-Dec-18 15:32N 47°08' W 122°39'0 0.0
2014-Dec-18 14:32N 47°08' W 122°39'0 0.0
2014-Dec-18 13:32N 47°08' W 122°39'0 0.0
2014-Dec-18 12:33N 47°08' W 122°39'3 2.8
2014-Dec-18 11:31N 47°11' W 122°37'8 8.4
2014-Dec-18 10:33N 47°19' W 122°33'8 8.2
2014-Dec-18 09:33N 47°27' W 122°31'9 8.7
2014-Dec-18 08:33N 47°35' W 122°28'6 5.9
2014-Dec-18 07:33N 47°41' W 122°26'3 3.3
2014-Dec-18 06:33N 47°39' W 122°21'5 5.2
2014-Dec-18 05:33N 47°42' W 122°15'4 3.5
2014-Dec-18 04:31N 47°45' W 122°15'1 1.4
2014-Dec-18 03:33N 47°44' W 122°16'5 5.4
2014-Dec-18 02:33N 47°39' W 122°18'4 3.9
2014-Dec-18 01:33N 47°40' W 122°24'0 0.3
2014-Dec-18 00:33N 47°40' W 122°23'1 0.6
2014-Dec-17 23:33N 47°40' W 122°24'2 2.3
2014-Dec-17 22:33N 47°39' W 122°27'7 6.8
2014-Dec-17 21:33N 47°32' W 122°29'7 7.0
2014-Dec-17 20:33N 47°25' W 122°32'7 6.8
2014-Dec-17 19:33N 47°19' W 122°33'5 5.1
2014-Dec-17 18:33N 47°14' W 122°34'6 6.1
2014-Dec-17 17:31N 47°08' W 122°39'0 0.0
2014-Dec-17 16:28N 47°08' W 122°39'0 0.0
2014-Dec-17 15:18N 47°08' W 122°39'0 0.0
2014-Dec-17 14:20N 47°08' W 122°39'0 0.0
2014-Dec-17 13:33N 47°08' W 122°39'0 0.0
2014-Dec-17 12:07N 47°08' W 122°39'1 0.9
2014-Dec-17 11:32N 47°09' W 122°39'8 7.7
2014-Dec-17 10:33N 47°15' W 122°34'8 7.9
2014-Dec-17 09:33N 47°23' W 122°32'8 8.3
2014-Dec-17 08:33N 47°31' W 122°29'9 8.9
2014-Dec-17 07:33N 47°40' W 122°26'3 3.3
2014-Dec-17 06:33N 47°39' W 122°22'5 5.1
2014-Dec-17 05:33N 47°42' W 122°15'3 3.3
2014-Dec-17 04:32N 47°45' W 122°16'2 1.8
2014-Dec-17 03:33N 47°43' W 122°16'5 4.5
2014-Dec-17 02:31N 47°39' W 122°19'3 3.3
2014-Dec-17 01:33N 47°40' W 122°24'0 0.0
2014-Dec-17 00:33N 47°40' W 122°24'2 1.5
2014-Dec-16 23:33N 47°40' W 122°26'6 6.5
2014-Dec-16 22:33N 47°34' W 122°28'7 7.0
2014-Dec-16 21:33N 47°28' W 122°31'7 7.2
2014-Dec-16 20:33N 47°20' W 122°33'6 5.7
2014-Dec-16 19:33N 47°15' W 122°34'6 6.4
2014-Dec-16 18:34N 47°09' W 122°39'1 1.1
2014-Dec-16 17:29N 47°08' W 122°39'0 0.0
2014-Dec-16 16:34N 47°08' W 122°39'0 0.0
2014-Dec-16 15:32N 47°08' W 122°39'1 0.6
2014-Dec-16 14:33N 47°09' W 122°38'2 1.9
2014-Dec-16 13:33N 47°10' W 122°38'8 7.7
2014-Dec-16 12:33N 47°17' W 122°32'8 7.7
2014-Dec-16 11:33N 47°25' W 122°32'8 8.1
2014-Dec-16 10:33N 47°33' W 122°28'5 4.6
2014-Dec-16 09:34N 47°34' W 122°22'0 0.1
2014-Dec-16 08:34N 47°34' W 122°21'0 0.0
2014-Dec-16 07:30N 47°34' W 122°21'0 0.0
2014-Dec-16 06:32N 47°34' W 122°21'0 0.0
2014-Dec-16 05:34N 47°34' W 122°21'0 0.0
2014-Dec-16 03:27N 47°34' W 122°21'0 0.0
2014-Dec-16 02:33N 47°34' W 122°21'0 0.0
2014-Dec-16 01:31N 47°34' W 122°21'0 0.0
2014-Dec-16 00:26N 47°34' W 122°21'0 0.0
2014-Dec-15 23:33N 47°34' W 122°21'0 0.0
2014-Dec-15 22:34N 47°34' W 122°21'0 0.0
2014-Dec-15 21:33N 47°34' W 122°21'0 0.0
2014-Dec-15 20:31N 47°34' W 122°21'0 0.0
2014-Dec-15 19:23N 47°34' W 122°21'0 0.0
2014-Dec-15 18:32N 47°34' W 122°21'0 0.0
2014-Dec-15 17:34N 47°34' W 122°21'0 0.0
2014-Dec-15 16:34N 47°34' W 122°21'0 0.0
2014-Dec-15 12:33N 47°34' W 122°21'0 0.0
2014-Dec-15 11:34N 47°34' W 122°21'0 0.0
2014-Dec-15 10:34N 47°34' W 122°21'0 0.0
2014-Dec-15 09:34N 47°34' W 122°21'0 0.0
2014-Dec-15 07:25N 47°34' W 122°21'0 0.0
2014-Dec-15 06:22N 47°34' W 122°21'0 0.0
2014-Dec-15 05:34N 47°34' W 122°21'0 0.0
2014-Dec-15 04:34N 47°34' W 122°21'0 0.0
2014-Dec-15 03:33N 47°34' W 122°21'0 0.0
2014-Dec-15 02:34N 47°34' W 122°21'0 0.0
2014-Dec-15 01:34N 47°34' W 122°21'0 0.0
2014-Dec-15 00:34N 47°34' W 122°21'0 0.0
2014-Dec-14 23:34N 47°34' W 122°21'0 0.0
2014-Dec-14 22:34N 47°34' W 122°21'0 0.0
2014-Dec-14 21:34N 47°34' W 122°21'0 0.0
2014-Dec-14 20:34N 47°34' W 122°21'0 0.0
2014-Dec-14 19:33N 47°34' W 122°21'0 0.0
2014-Dec-14 18:33N 47°34' W 122°21'0 0.0
2014-Dec-14 17:34N 47°34' W 122°21'0 0.0
2014-Dec-14 16:34N 47°34' W 122°21'0 0.0
2014-Dec-14 15:33N 47°34' W 122°21'0 0.0
2014-Dec-14 13:32N 47°34' W 122°21'0 0.0
2014-Dec-14 12:31N 47°34' W 122°21'0 0.0
2014-Dec-14 11:32N 47°34' W 122°21'0 0.0
2014-Dec-14 10:30N 47°34' W 122°21'0 0.0
2014-Dec-14 09:33N 47°34' W 122°21'0 0.0
2014-Dec-14 07:27N 47°34' W 122°21'0 0.0
2014-Dec-14 06:27N 47°34' W 122°21'0 0.0
2014-Dec-14 05:34N 47°34' W 122°21'0 0.0
2014-Dec-14 04:33N 47°34' W 122°21'0 0.0
2014-Dec-14 03:33N 47°34' W 122°21'0 0.0
2014-Dec-14 02:34N 47°34' W 122°21'0 0.0
2014-Dec-14 00:22N 47°34' W 122°21'0 0.0
2014-Dec-13 23:33N 47°34' W 122°21'0 0.0
2014-Dec-13 22:30N 47°34' W 122°21'0 0.0
2014-Dec-13 21:34N 47°34' W 122°21'0 0.0
2014-Dec-13 20:34N 47°34' W 122°21'0 0.0
2014-Dec-13 19:29N 47°34' W 122°21'0 0.0
2014-Dec-13 18:23N 47°34' W 122°21'0 0.0
2014-Dec-13 17:34N 47°34' W 122°21'0 0.0
2014-Dec-13 16:34N 47°34' W 122°21'0 0.0
2014-Dec-13 15:34N 47°34' W 122°21'0 0.0
2014-Dec-13 14:33N 47°34' W 122°21'0 0.0
2014-Dec-13 13:33N 47°34' W 122°21'0 0.0
2014-Dec-13 12:33N 47°34' W 122°21'0 0.0
2014-Dec-13 10:19N 47°34' W 122°21'0 0.0
2014-Dec-13 09:33N 47°34' W 122°21'0 0.0
2014-Dec-13 08:34N 47°34' W 122°21'0 0.0
2014-Dec-13 07:34N 47°34' W 122°21'0 0.0
2014-Dec-13 06:34N 47°34' W 122°21'0 0.0
2014-Dec-13 05:34N 47°34' W 122°21'0 0.0
2014-Dec-13 04:33N 47°34' W 122°21'0 0.0
2014-Dec-13 03:33N 47°34' W 122°21'0 0.0
2014-Dec-13 02:33N 47°34' W 122°21'0 0.0
2014-Dec-13 01:33N 47°34' W 122°21'0 0.0
2014-Dec-13 00:34N 47°34' W 122°21'0 0.0
2014-Dec-12 23:33N 47°34' W 122°21'0 0.0
2014-Dec-12 22:33N 47°34' W 122°21'0 0.0
2014-Dec-12 21:34N 47°34' W 122°21'0 0.0
2014-Dec-12 20:34N 47°34' W 122°21'0 0.0
2014-Dec-12 19:33N 47°34' W 122°21'0 0.0
2014-Dec-12 18:33N 47°34' W 122°21'0 0.0
2014-Dec-12 17:32N 47°34' W 122°21'0 0.0
2014-Dec-12 16:19N 47°34' W 122°21'0 0.0
2014-Dec-12 15:34N 47°34' W 122°21'0 0.0
2014-Dec-12 14:34N 47°34' W 122°21'0 0.0
2014-Dec-12 13:34N 47°34' W 122°21'0 0.0
2014-Dec-12 12:33N 47°34' W 122°21'0 0.0
2014-Dec-12 11:20N 47°34' W 122°21'0 0.0
2014-Dec-12 10:33N 47°34' W 122°21'0 0.0
2014-Dec-12 09:33N 47°34' W 122°21'0 0.0
2014-Dec-12 08:33N 47°34' W 122°21'0 0.0
2014-Dec-12 07:34N 47°34' W 122°21'0 0.0
2014-Dec-12 06:33N 47°34' W 122°21'0 0.0
2014-Dec-12 05:34N 47°34' W 122°21'0 0.0
2014-Dec-12 04:33N 47°34' W 122°21'0 0.0
2014-Dec-12 03:34N 47°34' W 122°21'0 0.0
2014-Dec-12 02:33N 47°34' W 122°21'0 0.0
2014-Dec-12 01:34N 47°34' W 122°21'0 0.0
2014-Dec-12 00:33N 47°34' W 122°21'0 0.0
2014-Dec-11 23:34N 47°34' W 122°21'0 0.0
2014-Dec-11 22:34N 47°34' W 122°21'0 0.0
2014-Dec-11 21:34N 47°34' W 122°21'0 0.0
2014-Dec-11 20:34N 47°34' W 122°21'0 0.0
2014-Dec-11 19:33N 47°34' W 122°21'0 0.0
2014-Dec-11 18:34N 47°34' W 122°21'0 0.0
2014-Dec-11 17:34N 47°34' W 122°21'0 0.0
2014-Dec-11 16:33N 47°34' W 122°21'0 0.0
2014-Dec-11 15:33N 47°34' W 122°21'0 0.0
2014-Dec-11 14:34N 47°34' W 122°21'0 0.0
2014-Dec-11 13:33N 47°34' W 122°21'0 0.0
2014-Dec-11 12:33N 47°34' W 122°21'0 0.0
2014-Dec-11 11:33N 47°34' W 122°21'0 0.0
2014-Dec-11 10:33N 47°34' W 122°21'0 0.0
2014-Dec-11 09:34N 47°34' W 122°21'0 0.0
2014-Dec-11 08:34N 47°34' W 122°21'0 0.0
2014-Dec-11 07:33N 47°34' W 122°21'0 0.0
2014-Dec-11 06:33N 47°34' W 122°21'0 0.0
2014-Dec-11 05:34N 47°34' W 122°21'0 0.0
2014-Dec-11 04:33N 47°34' W 122°21'0 0.0
2014-Dec-11 03:34N 47°34' W 122°21'0 0.0
2014-Dec-11 02:34N 47°34' W 122°21'0 0.0
2014-Dec-11 01:34N 47°34' W 122°21'0 0.0
2014-Dec-11 00:33N 47°34' W 122°21'0 0.0
2014-Dec-10 23:33N 47°34' W 122°21'0 0.0
2014-Dec-10 22:33N 47°34' W 122°21'0 0.0
2014-Dec-10 21:32N 47°34' W 122°21'0 0.0
2014-Dec-10 20:29N 47°34' W 122°21'0 0.0
2014-Dec-10 19:33N 47°34' W 122°21'0 0.0
2014-Dec-10 18:33N 47°34' W 122°21'0 0.0
2014-Dec-10 17:33N 47°34' W 122°21'0 0.0
2014-Dec-10 14:32N 47°34' W 122°21'0 0.0
2014-Dec-10 13:33N 47°34' W 122°21'0 0.0
2014-Dec-10 12:33N 47°34' W 122°21'0 0.0
2014-Dec-10 11:33N 47°34' W 122°21'0 0.0
2014-Dec-10 10:22N 47°34' W 122°21'0 0.0
2014-Dec-10 09:33N 47°34' W 122°21'0 0.0
2014-Dec-10 08:33N 47°34' W 122°21'0 0.0
2014-Dec-10 07:33N 47°34' W 122°21'0 0.0
2014-Dec-10 06:33N 47°34' W 122°21'0 0.0
2014-Dec-10 05:33N 47°34' W 122°21'0 0.0
2014-Dec-10 04:33N 47°34' W 122°21'0 0.0
2014-Dec-10 03:33N 47°34' W 122°21'0 0.0
2014-Dec-10 02:33N 47°34' W 122°21'0 0.0
2014-Dec-10 01:33N 47°34' W 122°21'0 0.0
2014-Dec-10 00:33N 47°34' W 122°21'0 0.0
2014-Dec-09 23:33N 47°34' W 122°21'0 0.0
2014-Dec-09 22:26N 47°34' W 122°21'0 0.0
2014-Dec-09 21:33N 47°34' W 122°21'0 0.0
2014-Dec-09 20:33N 47°34' W 122°21'0 0.0
2014-Dec-09 19:33N 47°34' W 122°21'0 0.0
2014-Dec-09 18:31N 47°34' W 122°21'0 0.0
2014-Dec-09 18:31N 47°34' W 122°21'0 0.0
2014-Dec-09 17:33N 47°34' W 122°21'0 0.0
2014-Dec-09 17:32N 47°34' W 122°21'0 0.0
2014-Dec-09 16:33N 47°34' W 122°21'0 0.0
2014-Dec-09 16:32N 47°34' W 122°21'  
Track history (hours):
 
Tides and Currents Weather Stations Pressure Air Temp Water Temp Dewpoint Dewpoint Depression Visibility Wind Speed Wind Dir Waves Ship Positions

Island Breeze

Owner: Island Tug & Barge Co., Seattle, WA. More information available from US FCC via Universal Licensing System and Coast Guard Vessel Documentation Center.

Last reported at 2014-Dec-19 07:33 UTC. Time now 2014-Dec-21 11:23 UTC.
Position N 47°34' W 122°21'.

Length 18 m.

Type: Tug. MMSI: 366800090.

Date/timePositionNaut miles runAvg speedWind from/ knotsBaromVisibWave heightAir tempDewpointWater temp
2014-Dec-19 07:33N 47°34' W 122°21'0 0.0
2014-Dec-19 06:33N 47°34' W 122°21'1 0.7
2014-Dec-19 05:33N 47°34' W 122°21'0 0.0
2014-Dec-19 04:33N 47°34' W 122°21'0 0.0
2014-Dec-19 03:33N 47°34' W 122°21'1 0.9
2014-Dec-19 02:33N 47°35' W 122°22'3 2.6
2014-Dec-19 01:32N 47°33' W 122°20'2 2.1
2014-Dec-19 00:33N 47°35' W 122°22'4 4.3
2014-Dec-18 23:33N 47°33' W 122°27'7 6.6
2014-Dec-18 22:33N 47°27' W 122°31'6 6.1
2014-Dec-18 21:33N 47°21' W 122°33'5 5.0
2014-Dec-18 20:33N 47°16' W 122°33'5 4.9
2014-Dec-18 19:33N 47°12' W 122°36'4 3.9
2014-Dec-18 18:33N 47°08' W 122°39'0 0.0
2014-Dec-18 17:29N 47°08' W 122°39'0 0.0
2014-Dec-18 16:29N 47°08' W 122°39'0 0.0
2014-Dec-18 15:32N 47°08' W 122°39'0 0.0
2014-Dec-18 14:32N 47°08' W 122°39'0 0.0
2014-Dec-18 13:32N 47°08' W 122°39'0 0.0
2014-Dec-18 12:33N 47°08' W 122°39'3 2.8
2014-Dec-18 11:31N 47°11' W 122°37'8 8.4
2014-Dec-18 10:33N 47°19' W 122°33'8 8.2
2014-Dec-18 09:33N 47°27' W 122°31'9 8.7
2014-Dec-18 08:33N 47°35' W 122°28'6 5.9
2014-Dec-18 07:33N 47°41' W 122°26'3 3.3
2014-Dec-18 06:33N 47°39' W 122°21'5 5.2
2014-Dec-18 05:33N 47°42' W 122°15'4 3.5
2014-Dec-18 04:31N 47°45' W 122°15'1 1.4
2014-Dec-18 03:33N 47°44' W 122°16'5 5.4
2014-Dec-18 02:33N 47°39' W 122°18'4 3.9
2014-Dec-18 01:33N 47°40' W 122°24'0 0.3
2014-Dec-18 00:33N 47°40' W 122°23'1 0.6
2014-Dec-17 23:33N 47°40' W 122°24'2 2.3
2014-Dec-17 22:33N 47°39' W 122°27'7 6.8
2014-Dec-17 21:33N 47°32' W 122°29'7 7.0
2014-Dec-17 20:33N 47°25' W 122°32'7 6.8
2014-Dec-17 19:33N 47°19' W 122°33'5 5.1
2014-Dec-17 18:33N 47°14' W 122°34'6 6.1
2014-Dec-17 17:31N 47°08' W 122°39'0 0.0
2014-Dec-17 16:28N 47°08' W 122°39'0 0.0
2014-Dec-17 15:18N 47°08' W 122°39'0 0.0
2014-Dec-17 14:20N 47°08' W 122°39'0 0.0
2014-Dec-17 13:33N 47°08' W 122°39'0 0.0
2014-Dec-17 12:07N 47°08' W 122°39'1 0.9
2014-Dec-17 11:32N 47°09' W 122°39'8 7.7
2014-Dec-17 10:33N 47°15' W 122°34'8 7.9
2014-Dec-17 09:33N 47°23' W 122°32'8 8.3
2014-Dec-17 08:33N 47°31' W 122°29'9 8.9
2014-Dec-17 07:33N 47°40' W 122°26'3 3.3
2014-Dec-17 06:33N 47°39' W 122°22'5 5.1
2014-Dec-17 05:33N 47°42' W 122°15'3 3.3
2014-Dec-17 04:32N 47°45' W 122°16'2 1.8
2014-Dec-17 03:33N 47°43' W 122°16'5 4.5
2014-Dec-17 02:31N 47°39' W 122°19'3 3.3
2014-Dec-17 01:33N 47°40' W 122°24'0 0.0
2014-Dec-17 00:33N 47°40' W 122°24'2 1.5
2014-Dec-16 23:33N 47°40' W 122°26'6 6.5
2014-Dec-16 22:33N 47°34' W 122°28'7 7.0
2014-Dec-16 21:33N 47°28' W 122°31'7 7.2
2014-Dec-16 20:33N 47°20' W 122°33'6 5.7
2014-Dec-16 19:33N 47°15' W 122°34'6 6.4
2014-Dec-16 18:34N 47°09' W 122°39'1 1.1
2014-Dec-16 17:29N 47°08' W 122°39'0 0.0
2014-Dec-16 16:34N 47°08' W 122°39'0 0.0
2014-Dec-16 15:32N 47°08' W 122°39'1 0.6
2014-Dec-16 14:33N 47°09' W 122°38'2 1.9
2014-Dec-16 13:33N 47°10' W 122°38'8 7.7
2014-Dec-16 12:33N 47°17' W 122°32'8 7.7
2014-Dec-16 11:33N 47°25' W 122°32'8 8.1
2014-Dec-16 10:33N 47°33' W 122°28'5 4.6
2014-Dec-16 09:34N 47°34' W 122°22'0 0.1
2014-Dec-16 08:34N 47°34' W 122°21'0 0.0
2014-Dec-16 07:30N 47°34' W 122°21'0 0.0
2014-Dec-16 06:32N 47°34' W 122°21'0 0.0
2014-Dec-16 05:34N 47°34' W 122°21'0 0.0
2014-Dec-16 03:27N 47°34' W 122°21'0 0.0
2014-Dec-16 02:33N 47°34' W 122°21'0 0.0
2014-Dec-16 01:31N 47°34' W 122°21'0 0.0
2014-Dec-16 00:26N 47°34' W 122°21'0 0.0
2014-Dec-15 23:33N 47°34' W 122°21'0 0.0
2014-Dec-15 22:34N 47°34' W 122°21'0 0.0
2014-Dec-15 21:33N 47°34' W 122°21'0 0.0
2014-Dec-15 20:31N 47°34' W 122°21'0 0.0
2014-Dec-15 19:23N 47°34' W 122°21'0 0.0
2014-Dec-15 18:32N 47°34' W 122°21'0 0.0
2014-Dec-15 17:34N 47°34' W 122°21'0 0.0
2014-Dec-15 16:34N 47°34' W 122°21'0 0.0
2014-Dec-15 12:33N 47°34' W 122°21'0 0.0
2014-Dec-15 11:34N 47°34' W 122°21'0 0.0
2014-Dec-15 10:34N 47°34' W 122°21'0 0.0
2014-Dec-15 09:34N 47°34' W 122°21'0 0.0
2014-Dec-15 07:25N 47°34' W 122°21'0 0.0
2014-Dec-15 06:22N 47°34' W 122°21'0 0.0
2014-Dec-15 05:34N 47°34' W 122°21'0 0.0
2014-Dec-15 04:34N 47°34' W 122°21'0 0.0
2014-Dec-15 03:33N 47°34' W 122°21'0 0.0
2014-Dec-15 02:34N 47°34' W 122°21'0 0.0
2014-Dec-15 01:34N 47°34' W 122°21'0 0.0
2014-Dec-15 00:34N 47°34' W 122°21'0 0.0
2014-Dec-14 23:34N 47°34' W 122°21'0 0.0
2014-Dec-14 22:34N 47°34' W 122°21'0 0.0
2014-Dec-14 21:34N 47°34' W 122°21'0 0.0
2014-Dec-14 20:34N 47°34' W 122°21'0 0.0
2014-Dec-14 19:33N 47°34' W 122°21'0 0.0
2014-Dec-14 18:33N 47°34' W 122°21'0 0.0
2014-Dec-14 17:34N 47°34' W 122°21'0 0.0
2014-Dec-14 16:34N 47°34' W 122°21'0 0.0
2014-Dec-14 15:33N 47°34' W 122°21'0 0.0
2014-Dec-14 13:32N 47°34' W 122°21'0 0.0
2014-Dec-14 12:31N 47°34' W 122°21'0 0.0
2014-Dec-14 11:32N 47°34' W 122°21'0 0.0
2014-Dec-14 10:30N 47°34' W 122°21'0 0.0
2014-Dec-14 09:33N 47°34' W 122°21'0 0.0
2014-Dec-14 07:27N 47°34' W 122°21'0 0.0
2014-Dec-14 06:27N 47°34' W 122°21'0 0.0
2014-Dec-14 05:34N 47°34' W 122°21'0 0.0
2014-Dec-14 04:33N 47°34' W 122°21'0 0.0
2014-Dec-14 03:33N 47°34' W 122°21'0 0.0
2014-Dec-14 02:34N 47°34' W 122°21'0 0.0
2014-Dec-14 00:22N 47°34' W 122°21'0 0.0
2014-Dec-13 23:33N 47°34' W 122°21'0 0.0
2014-Dec-13 22:30N 47°34' W 122°21'0 0.0
2014-Dec-13 21:34N 47°34' W 122°21'0 0.0
2014-Dec-13 20:34N 47°34' W 122°21'0 0.0
2014-Dec-13 19:29N 47°34' W 122°21'0 0.0
2014-Dec-13 18:23N 47°34' W 122°21'0 0.0
2014-Dec-13 17:34N 47°34' W 122°21'0 0.0
2014-Dec-13 16:34N 47°34' W 122°21'0 0.0
2014-Dec-13 15:34N 47°34' W 122°21'0 0.0
2014-Dec-13 14:33N 47°34' W 122°21'0 0.0
2014-Dec-13 13:33N 47°34' W 122°21'0 0.0
2014-Dec-13 12:33N 47°34' W 122°21'0 0.0
2014-Dec-13 10:19N 47°34' W 122°21'0 0.0
2014-Dec-13 09:33N 47°34' W 122°21'0 0.0
2014-Dec-13 08:34N 47°34' W 122°21'0 0.0
2014-Dec-13 07:34N 47°34' W 122°21'0 0.0
2014-Dec-13 06:34N 47°34' W 122°21'0 0.0
2014-Dec-13 05:34N 47°34' W 122°21'0 0.0
2014-Dec-13 04:33N 47°34' W 122°21'0 0.0
2014-Dec-13 03:33N 47°34' W 122°21'0 0.0
2014-Dec-13 02:33N 47°34' W 122°21'0 0.0
2014-Dec-13 01:33N 47°34' W 122°21'0 0.0
2014-Dec-13 00:34N 47°34' W 122°21'0 0.0
2014-Dec-12 23:33N 47°34' W 122°21'0 0.0
2014-Dec-12 22:33N 47°34' W 122°21'0 0.0
2014-Dec-12 21:34N 47°34' W 122°21'0 0.0
2014-Dec-12 20:34N 47°34' W 122°21'0 0.0
2014-Dec-12 19:33N 47°34' W 122°21'0 0.0
2014-Dec-12 18:33N 47°34' W 122°21'0 0.0
2014-Dec-12 17:32N 47°34' W 122°21'0 0.0
2014-Dec-12 16:19N 47°34' W 122°21'0 0.0
2014-Dec-12 15:34N 47°34' W 122°21'0 0.0
2014-Dec-12 14:34N 47°34' W 122°21'0 0.0
2014-Dec-12 13:34N 47°34' W 122°21'0 0.0
2014-Dec-12 12:33N 47°34' W 122°21'0 0.0
2014-Dec-12 11:20N 47°34' W 122°21'0 0.0
2014-Dec-12 10:33N 47°34' W 122°21'0 0.0
2014-Dec-12 09:33N 47°34' W 122°21'0 0.0
2014-Dec-12 08:33N 47°34' W 122°21'0 0.0
2014-Dec-12 07:34N 47°34' W 122°21'0 0.0
2014-Dec-12 06:33N 47°34' W 122°21'0 0.0
2014-Dec-12 05:34N 47°34' W 122°21'0 0.0
2014-Dec-12 04:33N 47°34' W 122°21'0 0.0
2014-Dec-12 03:34N 47°34' W 122°21'0 0.0
2014-Dec-12 02:33N 47°34' W 122°21'0 0.0
2014-Dec-12 01:34N 47°34' W 122°21'0 0.0
2014-Dec-12 00:33N 47°34' W 122°21'0 0.0
2014-Dec-11 23:34N 47°34' W 122°21'0 0.0
2014-Dec-11 22:34N 47°34' W 122°21'0 0.0
2014-Dec-11 21:34N 47°34' W 122°21'0 0.0
2014-Dec-11 20:34N 47°34' W 122°21'0 0.0
2014-Dec-11 19:33N 47°34' W 122°21'0 0.0
2014-Dec-11 18:34N 47°34' W 122°21'0 0.0
2014-Dec-11 17:34N 47°34' W 122°21'0 0.0
2014-Dec-11 16:33N 47°34' W 122°21'0 0.0
2014-Dec-11 15:33N 47°34' W 122°21'0 0.0
2014-Dec-11 14:34N 47°34' W 122°21'0 0.0
2014-Dec-11 13:33N 47°34' W 122°21'0 0.0
2014-Dec-11 12:33N 47°34' W 122°21'0 0.0
2014-Dec-11 11:33N 47°34' W 122°21'0 0.0
2014-Dec-11 10:33N 47°34' W 122°21'0 0.0
2014-Dec-11 09:34N 47°34' W 122°21'0 0.0
2014-Dec-11 08:34N 47°34' W 122°21'0 0.0
2014-Dec-11 07:33N 47°34' W 122°21'0 0.0
2014-Dec-11 06:33N 47°34' W 122°21'0 0.0
2014-Dec-11 05:34N 47°34' W 122°21'0 0.0
2014-Dec-11 04:33N 47°34' W 122°21'0 0.0
2014-Dec-11 03:34N 47°34' W 122°21'0 0.0
2014-Dec-11 02:34N 47°34' W 122°21'0 0.0
2014-Dec-11 01:34N 47°34' W 122°21'0 0.0
2014-Dec-11 00:33N 47°34' W 122°21'0 0.0
2014-Dec-10 23:33N 47°34' W 122°21'0 0.0
2014-Dec-10 22:33N 47°34' W 122°21'0 0.0
2014-Dec-10 21:32N 47°34' W 122°21'0 0.0
2014-Dec-10 20:29N 47°34' W 122°21'0 0.0
2014-Dec-10 19:33N 47°34' W 122°21'0 0.0
2014-Dec-10 18:33N 47°34' W 122°21'0 0.0
2014-Dec-10 17:33N 47°34' W 122°21'0 0.0
2014-Dec-10 14:32N 47°34' W 122°21'0 0.0
2014-Dec-10 13:33N 47°34' W 122°21'0 0.0
2014-Dec-10 12:33N 47°34' W 122°21'0 0.0
2014-Dec-10 11:33N 47°34' W 122°21'0 0.0
2014-Dec-10 10:22N 47°34' W 122°21'0 0.0
2014-Dec-10 09:33N 47°34' W 122°21'0 0.0
2014-Dec-10 08:33N 47°34' W 122°21'0 0.0
2014-Dec-10 07:33N 47°34' W 122°21'0 0.0
2014-Dec-10 06:33N 47°34' W 122°21'0 0.0
2014-Dec-10 05:33N 47°34' W 122°21'0 0.0
2014-Dec-10 04:33N 47°34' W 122°21'0 0.0
2014-Dec-10 03:33N 47°34' W 122°21'0 0.0
2014-Dec-10 02:33N 47°34' W 122°21'0 0.0
2014-Dec-10 01:33N 47°34' W 122°21'0 0.0
2014-Dec-10 00:33N 47°34' W 122°21'0 0.0
2014-Dec-09 23:33N 47°34' W 122°21'0 0.0
2014-Dec-09 22:26N 47°34' W 122°21'0 0.0
2014-Dec-09 21:33N 47°34' W 122°21'0 0.0
2014-Dec-09 20:33N 47°34' W 122°21'0 0.0
2014-Dec-09 19:33N 47°34' W 122°21'0 0.0
2014-Dec-09 18:31N 47°34' W 122°21'0 0.0
2014-Dec-09 18:31N 47°34' W 122°21'0 0.0
2014-Dec-09 17:33N 47°34' W 122°21'0 0.0
2014-Dec-09 17:32N 47°34' W 122°21'0 0.0
2014-Dec-09 16:33N 47°34' W 122°21'0 0.0
2014-Dec-09 16:32N 47°34' W 122°21'  

Dump ship's entire track history